Home   Weather   Russia   Chita   Past weeks
Flag for Russia

Past Weather in Chita, Russia — Yesterday and Last 2 Weeks

Currently: 75 °F. Scattered clouds. (Weather station: Chita Airport, Russia). See more current weather

Past Weather in Chita — Graph

°F

Chita Temperature Yesterday

Maximum temperature yesterday: 79 °F (at 3:30 pm)
Minimum temperature yesterday: 43 °F (at 5:30 am)
Average temperature yesterday: 61 °F

High & Low Weather Summary for the Past Weeks

 TemperatureHumidityPressure
High82 °F (Aug 2, 3:00 pm)100% (Jul 31, 11:00 pm)29.83 "Hg (Jul 31, 11:00 pm)
Low41 °F (Aug 10, 6:30 am)26% (Aug 15, 3:30 pm)29.59 "Hg (Jul 31, 6:30 pm)
Average62 °F70%29.73 "Hg
* Reported Jul 31 6:00 pm — Aug 15 6:00 pm, Chita. Weather by CustomWeather, © 2022

Note: Actual official high and low records may vary slightly from our data, if they occured in-between our weather recording intervals... More about our weather records

Chita Weather History for the Previous 24 Hours

Scroll right to see more
 ConditionsComfort  
Time TempWeatherWind HumidityBarometerVisibility
6:00 pm
Mon, Aug 15
75 °FScattered clouds.1 mph47%29.68 "HgN/A
5:30 pm70 °FScattered clouds.3 mph64%29.68 "HgN/A
5:00 pm68 °FThunderstorms. Scattered clouds.6 mph69%29.71 "HgN/A
4:30 pm75 °FScattered clouds.3 mph39%29.68 "HgN/A
4:00 pm79 °FScattered clouds.3 mph30%29.68 "HgN/A
3:30 pm81 °FClear.8 mph26%29.68 "HgN/A
3:00 pm81 °FClear.10 mph28%29.71 "HgN/A
2:30 pm79 °FClear.8 mph30%29.71 "HgN/A
2:00 pm79 °FClear.8 mph30%29.74 "HgN/A
1:30 pm77 °FClear.8 mph36%29.74 "HgN/A
1:00 pm77 °FClear.8 mph39%29.74 "HgN/A
12:30 pm75 °FClear.6 mph44%29.74 "HgN/A
12:00 pm73 °FClear.6 mph47%29.74 "HgN/A
11:30 am70 °FClear.6 mph53%29.77 "HgN/A
11:00 am66 °FClear.3 mph64%29.77 "HgN/A
10:30 am64 °FClear.3 mph68%29.77 "HgN/A
10:00 am61 °FClear.1 mph72%29.77 "HgN/A
8:30 am55 °FClear.No wind94%29.77 "HgN/A
8:00 am52 °FClear.No wind100%29.77 "HgN/A
7:30 am50 °FFog.No wind100%29.77 "HgN/A
7:00 am46 °FFog.No wind100%29.74 "HgN/A
6:30 am45 °FFog.1 mph100%29.74 "HgN/A
6:00 am45 °FFog.1 mph100%29.74 "HgN/A
5:30 am45 °FFog.3 mph100%29.74 "HgN/A
5:00 am45 °FClear.1 mph100%29.74 "HgN/A
4:30 am46 °FClear.No wind100%29.74 "HgN/A
3:30 am46 °FCool.No wind100%29.71 "HgN/A
3:00 am48 °FCool.1 mph100%29.71 "HgN/A
2:30 am48 °FCool.No wind100%29.71 "HgN/A
2:00 am50 °FCool.1 mph100%29.71 "HgN/A
1:30 am50 °FCool.1 mph100%29.71 "HgN/A
1:00 am50 °FCool.1 mph100%29.71 "HgN/A
12:30 am52 °FCool.3 mph100%29.71 "HgN/A
12:00 am54 °FCool.1 mph94%29.71 "HgN/A
11:30 pm
Sun, Aug 14
55 °FCool.1 mph94%29.71 "HgN/A
11:00 pm55 °FCool.3 mph94%29.71 "HgN/A
10:30 pm57 °FCool.3 mph82%29.71 "HgN/A
9:30 pm63 °FClear.3 mph73%29.68 "HgN/A
9:00 pm61 °FClear.3 mph88%29.68 "HgN/A
8:00 pm72 °FClear.No wind53%29.65 "HgN/A
7:30 pm75 °FClear.1 mph36%29.65 "HgN/A
7:00 pm79 °FClear.1 mph32%29.65 "HgN/A
6:30 pm79 °FPassing clouds.1 mph32%29.65 "HgN/A
6:00 pm79 °FPassing clouds.3 mph32%29.65 "HgN/A
Weather by CustomWeather, © 2022

See weather overview